This is the latest recevied weather packets stored in our database for station/object JP3QZN-13. If no packets are shown the sender has not sent any weather packets the latest 10 day(s).
| Time | Temp. | Humidity | Pressure | Rain* | Wind** | Luminosity | Snow |
|---|---|---|---|---|---|---|---|
| 1777339816 | 29.44° C | 45% | 1014.7 hPa | 0 mm | - | - | - |
| 1777336215 | 27.78° C | 49% | 1015.1 hPa | 0 mm | - | - | - |
| 1777334414 | 25.56° C | 52% | 1015.8 hPa | 0 mm | - | - | - |
| 1777332613 | 23.33° C | 58% | 1016.1 hPa | 0 mm | - | - | - |
| 1777330812 | 20.56° C | 65% | 1016.3 hPa | 0 mm | - | - | - |
| 1777329001 | 17.78° C | 72% | 1016.5 hPa | 0 mm | - | - | - |
| 1777327230 | 15.56° C | 74% | 1016.7 hPa | 0 mm | - | - | - |
| 1777325429 | 15.56° C | 75% | 1016.5 hPa | 0 mm | - | - | - |
| 1777321828 | 15° C | 75% | 1016.1 hPa | 0 mm | - | - | - |
| 1777320028 | 15.56° C | 75% | 1015.5 hPa | 0 mm | - | - | - |
| 1777318227 | 15.56° C | 74% | 1015.6 hPa | 0 mm | - | - | - |
| 1777316426 | 15.56° C | 74% | 1015.3 hPa | 0 mm | - | - | - |
| 1777314625 | 15.56° C | 73% | 1015.6 hPa | 0 mm | - | - | - |
| 1777312825 | 16.11° C | 72% | 1014.8 hPa | 0 mm | - | - | - |
| 1777311024 | 16.67° C | 71% | 1014.7 hPa | 0 mm | - | - | - |
| 1777309223 | 17.22° C | 69% | 1014.4 hPa | 0 mm | - | - | - |
| 1777307422 | 17.22° C | 69% | 1014 hPa | 0 mm | - | - | - |
| 1777305621 | 17.22° C | 67% | 1014.3 hPa | 0 mm | - | - | - |
| 1777303821 | 17.78° C | 67% | 1014.1 hPa | 0 mm | - | - | - |
| 1777302010 | 17.78° C | 67% | 1014.2 hPa | 0 mm | - | - | - |
| 1777300209 | 18.33° C | 66% | 1014 hPa | 0 mm | - | - | - |
| 1777298408 | 18.33° C | 66% | 1014 hPa | 0 mm | - | - | - |
| 1777296607 | 18.33° C | 65% | 1014.4 hPa | 0 mm | - | - | - |
| 1777294816 | 18.89° C | 62% | 1014.4 hPa | 0 mm | - | - | - |
| 1777293015 | 19.44° C | 61% | 1015.1 hPa | 0 mm | - | - | - |
* Rain latest hour (hover to see other rain measurements)
** Current wind speed in m/s (hover to see current wind gust speed)